Time;durP1;ratioP1;P1;durP2;ratioP2;P2;SDS_P1;SDS_P2;PMS_P1;PMS_P2;Temp;Humidity;BMP_temperature;BMP_pressure;BME280_temperature;BME280_humidity;BME280_pressure;Samples;Min_cycle;Max_cycle;Signal;HPM_P1;HPM_P2
2022/01/04 00:01:16;;;;;;;;;;;10.80;97.90;;;;;;5020899;28;19963;-74
2022/01/04 00:03:42;;;;;;;;;;;10.80;97.90;;;;;;5012521;28;20343;-73
2022/01/04 00:06:10;;;;;;;;;;;10.70;97.90;;;;;;5014739;28;19986;-74
2022/01/04 00:08:36;;;;;;;;;;;10.80;97.90;;;;;;5013526;28;19921;-74
2022/01/04 00:11:15;;;;;;;;;;;10.90;97.80;;;;;;5013245;28;20398;-75
2022/01/04 00:13:41;;;;;;;;;;;10.90;97.80;;;;;;5031367;28;20307;-74
2022/01/04 00:16:07;;;;;;;;;;;10.80;97.80;;;;;;5032541;28;19918;-73
2022/01/04 00:18:34;;;;;;;;;;;10.80;97.80;;;;;;5029579;28;19927;-74
2022/01/04 00:20:59;;;;;;;;;;;10.80;97.70;;;;;;5032297;28;19909;-76
2022/01/04 00:23:25;;;;;;;;;;;10.80;97.80;;;;;;5031815;28;19928;-73
2022/01/04 00:25:51;;;;;;;;;;;10.60;97.90;;;;;;5032870;28;20390;-74
2022/01/04 00:28:17;;;;;;;;;;;10.60;97.90;;;;;;5030928;28;19917;-75
2022/01/04 00:30:43;;;;;;;;;;;10.70;98.00;;;;;;5032923;28;20011;-74
2022/01/04 00:33:09;;;;;;;;;;;10.70;98.00;;;;;;5032878;28;20016;-74
2022/01/04 00:35:35;;;;;;;;;;;10.70;97.90;;;;;;5031889;28;20408;-74
2022/01/04 00:38:00;;;;;;;;;;;10.60;98.00;;;;;;5020211;28;19922;-75
2022/01/04 00:40:26;;;;;;;;;;;10.70;98.00;;;;;;5012858;28;19949;-74
2022/01/04 00:42:55;;;;;;;;;;;10.70;98.10;;;;;;5012723;28;19914;-75
2022/01/04 00:45:21;;;;;;;;;;;10.70;98.10;;;;;;5013073;28;19921;-74
2022/01/04 00:50:22;;;;;;;;;;;10.70;97.90;;;;;;5032559;28;19920;-75
2022/01/04 00:52:48;;;;;;;;;;;10.70;98.00;;;;;;5032380;28;19913;-74
2022/01/04 00:55:13;;;;;;;;;;;10.70;98.10;;;;;;5032384;28;19925;-75
2022/01/04 00:57:40;;;;;;;;;;;10.70;98.00;;;;;;5021049;28;19913;-75
2022/01/04 01:00:06;;;;;;;;;;;10.70;98.00;;;;;;5011958;28;20303;-74
2022/01/04 01:02:31;;;;;;;;;;;10.80;98.00;;;;;;5012777;28;19949;-73
2022/01/04 01:04:57;;;;;;;;;;;10.80;98.00;;;;;;5012156;28;19976;-73
2022/01/04 01:07:22;;;;;;;;;;;10.80;98.10;;;;;;5012996;28;20351;-74
2022/01/04 01:12:36;;;;;;;;;;;10.80;98.00;;;;;;5011116;28;19921;-75
2022/01/04 01:15:04;;;;;;;;;;;10.70;98.00;;;;;;5012592;28;19914;-74
2022/01/04 01:17:30;;;;;;;;;;;10.80;98.00;;;;;;5012361;28;19928;-75
2022/01/04 01:19:56;;;;;;;;;;;10.80;98.00;;;;;;5011833;28;19918;-75
2022/01/04 01:22:22;;;;;;;;;;;10.80;98.10;;;;;;5011000;28;19918;-76
2022/01/04 01:24:47;;;;;;;;;;;10.70;98.10;;;;;;5027594;28;19928;-75
2022/01/04 01:27:13;;;;;;;;;;;10.80;98.10;;;;;;5030553;28;19909;-74
2022/01/04 01:29:38;;;;;;;;;;;10.70;98.20;;;;;;5032013;28;19974;-74
2022/01/04 01:32:04;;;;;;;;;;;10.60;98.20;;;;;;5031561;28;20358;-74
2022/01/04 01:34:30;;;;;;;;;;;10.70;98.20;;;;;;5030585;28;20034;-74
2022/01/04 01:36:55;;;;;;;;;;;10.70;98.30;;;;;;5015309;28;19989;-74
2022/01/04 01:39:20;;;;;;;;;;;10.80;98.20;;;;;;5015477;28;19918;-73
2022/01/04 01:41:46;;;;;;;;;;;10.70;98.20;;;;;;5032124;28;20310;-74
2022/01/04 01:44:12;;;;;;;;;;;10.70;98.20;;;;;;5030657;28;19913;-75
2022/01/04 01:46:37;;;;;;;;;;;10.60;98.20;;;;;;5031152;28;19917;-74
2022/01/04 01:49:02;;;;;;;;;;;10.60;98.20;;;;;;5031388;28;19916;-74
2022/01/04 01:51:28;;;;;;;;;;;10.60;98.30;;;;;;5031379;28;20293;-75
2022/01/04 01:53:54;;;;;;;;;;;10.60;98.30;;;;;;5031447;28;19920;-75
2022/01/04 01:56:20;;;;;;;;;;;10.60;98.30;;;;;;5011360;28;19914;-75
2022/01/04 01:58:46;;;;;;;;;;;10.70;98.30;;;;;;5011550;28;19975;-74
2022/01/04 02:01:12;;;;;;;;;;;10.60;98.30;;;;;;5011501;28;19913;-74
2022/01/04 02:03:38;;;;;;;;;;;10.60;98.30;;;;;;5011455;28;19949;-74
2022/01/04 02:06:03;;;;;;;;;;;10.70;98.30;;;;;;5012190;28;20311;-74
2022/01/04 02:08:29;;;;;;;;;;;10.60;98.20;;;;;;5012667;28;20004;-74
2022/01/04 02:10:56;;;;;;;;;;;10.70;98.30;;;;;;5011540;28;19913;-75
2022/01/04 02:13:22;;;;;;;;;;;10.60;98.30;;;;;;5011435;28;20050;-75
2022/01/04 02:15:47;;;;;;;;;;;10.60;98.30;;;;;;5011314;28;20320;-73
2022/01/04 02:18:13;;;;;;;;;;;10.60;98.40;;;;;;5010704;28;19921;-74
2022/01/04 02:20:38;;;;;;;;;;;10.70;98.30;;;;;;5018988;28;19917;-75
2022/01/04 02:23:04;;;;;;;;;;;10.60;98.30;;;;;;5031203;28;19994;-74
2022/01/04 02:25:29;;;;;;;;;;;10.60;98.30;;;;;;5031152;28;19917;-74
2022/01/04 02:27:55;;;;;;;;;;;10.60;98.20;;;;;;5030913;28;19928;-74
2022/01/04 02:30:21;;;;;;;;;;;10.70;98.30;;;;;;5030169;28;20008;-73
2022/01/04 02:32:47;;;;;;;;;;;10.70;98.30;;;;;;5031609;28;20263;-74
2022/01/04 02:35:14;;;;;;;;;;;10.70;98.30;;;;;;5025993;28;20361;-75
2022/01/04 02:37:40;;;;;;;;;;;10.70;98.20;;;;;;5010137;28;19922;-74
2022/01/04 02:40:07;;;;;;;;;;;10.70;98.20;;;;;;5011068;28;20251;-73
2022/01/04 02:42:32;;;;;;;;;;;10.70;98.30;;;;;;5018152;28;19974;-75
2022/01/04 02:45:00;;;;;;;;;;;10.70;98.50;;;;;;5030136;28;20275;-75
2022/01/04 02:47:26;;;;;;;;;;;10.60;98.30;;;;;;5030588;28;19921;-75
2022/01/04 02:49:51;;;;;;;;;;;10.60;98.30;;;;;;5029864;28;19924;-75
2022/01/04 02:52:17;;;;;;;;;;;10.60;98.40;;;;;;5030661;28;19920;-74
2022/01/04 02:54:42;;;;;;;;;;;10.60;98.40;;;;;;5029768;28;19928;-73
2022/01/04 02:57:08;;;;;;;;;;;10.50;98.50;;;;;;5030999;28;19963;-75
2022/01/04 02:59:33;;;;;;;;;;;10.50;98.60;;;;;;5033062;28;19917;-74
2022/01/04 03:01:59;;;;;;;;;;;10.50;98.90;;;;;;5034640;28;19913;-74
2022/01/04 03:04:24;;;;;;;;;;;10.50;98.70;;;;;;5034130;28;19913;-74
2022/01/04 03:06:50;;;;;;;;;;;10.50;98.70;;;;;;5020752;28;19941;-74
2022/01/04 03:09:15;;;;;;;;;;;10.50;98.70;;;;;;5014922;28;20256;-74
2022/01/04 03:11:41;;;;;;;;;;;10.60;98.70;;;;;;5014469;28;19924;-73
2022/01/04 03:14:06;;;;;;;;;;;10.50;98.70;;;;;;5014639;28;19933;-74
2022/01/04 03:16:32;;;;;;;;;;;10.50;98.70;;;;;;5014552;28;20244;-74
2022/01/04 03:19:05;;;;;;;;;;;10.40;98.80;;;;;;5027196;28;19999;-73
2022/01/04 03:21:31;;;;;;;;;;;10.40;98.90;;;;;;5034065;28;19975;-74
2022/01/04 03:23:57;;;;;;;;;;;10.60;98.90;;;;;;5034466;28;20352;-75
2022/01/04 03:26:23;;;;;;;;;;;10.60;98.70;;;;;;5033650;28;19921;-76
2022/01/04 03:28:48;;;;;;;;;;;10.60;98.70;;;;;;5034013;28;20242;-75
2022/01/04 03:31:14;;;;;;;;;;;10.50;98.80;;;;;;5014429;28;20279;-75
2022/01/04 03:33:40;;;;;;;;;;;10.60;98.80;;;;;;5014032;28;20678;-75
2022/01/04 03:36:05;;;;;;;;;;;10.60;98.70;;;;;;5013459;28;19976;-74
2022/01/04 03:38:31;;;;;;;;;;;10.50;99.00;;;;;;5014024;28;19960;-74
2022/01/04 03:40:57;;;;;;;;;;;10.50;98.80;;;;;;5013863;28;20340;-75
2022/01/04 03:43:22;;;;;;;;;;;10.50;98.70;;;;;;5014062;28;19941;-75
2022/01/04 03:45:48;;;;;;;;;;;10.50;98.70;;;;;;5015172;28;19921;-75
2022/01/04 03:48:14;;;;;;;;;;;10.50;98.80;;;;;;5014375;28;19940;-75
2022/01/04 03:50:40;;;;;;;;;;;10.40;98.90;;;;;;5014168;28;19913;-74
2022/01/04 03:53:06;;;;;;;;;;;10.40;98.90;;;;;;5013794;28;20289;-75
2022/01/04 03:55:31;;;;;;;;;;;10.40;99.00;;;;;;5013690;28;19918;-75
2022/01/04 03:57:57;;;;;;;;;;;10.40;98.90;;;;;;5012758;28;19924;-74
2022/01/04 04:00:22;;;;;;;;;;;10.40;99.00;;;;;;5013816;28;19949;-74
2022/01/04 04:02:48;;;;;;;;;;;10.40;99.00;;;;;;5014216;28;19913;-74
2022/01/04 04:05:15;;;;;;;;;;;10.40;99.10;;;;;;5013433;28;19928;-75
2022/01/04 04:07:41;;;;;;;;;;;10.40;99.10;;;;;;5013808;28;19948;-76
2022/01/04 04:10:06;;;;;;;;;;;10.50;99.10;;;;;;5012209;28;19918;-75
2022/01/04 04:12:32;;;;;;;;;;;10.50;99.10;;;;;;5013446;28;19909;-75
2022/01/04 04:14:58;;;;;;;;;;;10.50;99.20;;;;;;5013706;28;19913;-74
2022/01/04 04:17:24;;;;;;;;;;;10.50;99.20;;;;;;5013308;28;19918;-74
2022/01/04 04:19:49;;;;;;;;;;;10.50;99.20;;;;;;5013234;28;19952;-75
2022/01/04 04:22:15;;;;;;;;;;;10.50;99.30;;;;;;5012154;28;19921;-74
2022/01/04 04:24:41;;;;;;;;;;;10.50;99.20;;;;;;5011945;28;20395;-75
2022/01/04 04:27:07;;;;;;;;;;;10.50;99.20;;;;;;5013293;28;19953;-74
2022/01/04 04:29:33;;;;;;;;;;;10.50;99.20;;;;;;5013111;28;19929;-75
2022/01/04 04:31:58;;;;;;;;;;;10.50;99.20;;;;;;5012834;28;19972;-75
2022/01/04 04:34:24;;;;;;;;;;;10.50;99.20;;;;;;5012865;28;20012;-75
2022/01/04 04:36:49;;;;;;;;;;;10.40;99.30;;;;;;5011853;28;19922;-75
2022/01/04 04:39:15;;;;;;;;;;;10.40;99.30;;;;;;5013273;28;19913;-74
2022/01/04 04:41:40;;;;;;;;;;;10.40;99.30;;;;;;5012970;28;19960;-75
2022/01/04 04:44:06;;;;;;;;;;;10.40;99.20;;;;;;5012830;28;20113;-75
2022/01/04 04:46:31;;;;;;;;;;;10.50;99.20;;;;;;5012804;28;20343;-74
2022/01/04 04:48:57;;;;;;;;;;;10.40;99.20;;;;;;5012624;28;20355;-75
2022/01/04 04:51:22;;;;;;;;;;;10.40;99.20;;;;;;5012546;28;20059;-74
2022/01/04 04:53:48;;;;;;;;;;;10.40;99.20;;;;;;5011502;28;19921;-76
2022/01/04 04:56:13;;;;;;;;;;;10.40;99.20;;;;;;5012745;28;19971;-75
2022/01/04 04:58:40;;;;;;;;;;;10.50;99.20;;;;;;5012091;28;19944;-74
2022/01/04 05:01:05;;;;;;;;;;;10.50;99.10;;;;;;5011359;28;19923;-74
2022/01/04 05:03:31;;;;;;;;;;;10.60;99.00;;;;;;5030367;28;19909;-76
2022/01/04 05:05:56;;;;;;;;;;;10.50;98.90;;;;;;5030697;28;20016;-76
2022/01/04 05:08:22;;;;;;;;;;;10.60;99.00;;;;;;5030849;28;19927;-75
2022/01/04 05:10:47;;;;;;;;;;;10.60;99.00;;;;;;5030766;28;19916;-76
2022/01/04 05:13:13;;;;;;;;;;;10.60;99.00;;;;;;5031871;28;20380;-76
2022/01/04 05:15:38;;;;;;;;;;;10.60;99.00;;;;;;5013301;28;20359;-76
2022/01/04 05:18:04;;;;;;;;;;;10.60;99.00;;;;;;5020485;28;19952;-75
2022/01/04 05:20:30;;;;;;;;;;;10.60;98.90;;;;;;5019169;28;19918;-74
2022/01/04 05:22:55;;;;;;;;;;;10.60;98.90;;;;;;5010345;28;19991;-75
2022/01/04 05:25:21;;;;;;;;;;;10.60;98.90;;;;;;5012168;28;19980;-74
2022/01/04 05:27:46;;;;;;;;;;;10.60;98.90;;;;;;5011038;28;19914;-75
2022/01/04 05:30:12;;;;;;;;;;;10.50;98.90;;;;;;5025269;28;19909;-75
2022/01/04 05:32:37;;;;;;;;;;;10.60;98.90;;;;;;5030043;28;19925;-75
2022/01/04 05:35:03;;;;;;;;;;;10.50;98.90;;;;;;5031731;28;20335;-74
2022/01/04 05:37:28;;;;;;;;;;;10.50;98.90;;;;;;5031543;28;19996;-76
2022/01/04 05:39:54;;;;;;;;;;;10.50;98.90;;;;;;5030394;28;19931;-75
2022/01/04 05:42:19;;;;;;;;;;;10.50;98.90;;;;;;5031876;28;19966;-75
2022/01/04 05:44:45;;;;;;;;;;;10.50;98.90;;;;;;5029859;28;20326;-75
2022/01/04 05:47:11;;;;;;;;;;;10.50;98.80;;;;;;5031481;28;19975;-75
2022/01/04 05:49:37;;;;;;;;;;;10.50;98.80;;;;;;5027814;28;19917;-74
2022/01/04 05:52:04;;;;;;;;;;;10.50;98.80;;;;;;5011595;28;20001;-74
2022/01/04 05:54:30;;;;;;;;;;;10.50;98.80;;;;;;5011386;28;19917;-74
2022/01/04 05:56:55;;;;;;;;;;;10.50;98.80;;;;;;5012048;28;19991;-75
2022/01/04 05:59:21;;;;;;;;;;;10.40;98.90;;;;;;5011330;28;19921;-74
2022/01/04 06:01:46;;;;;;;;;;;10.50;98.90;;;;;;5027065;28;19948;-75
2022/01/04 06:04:12;;;;;;;;;;;10.50;98.80;;;;;;5012553;28;20000;-75
2022/01/04 06:06:40;;;;;;;;;;;10.60;98.70;;;;;;5017992;28;19921;-75
2022/01/04 06:09:07;;;;;;;;;;;10.60;98.70;;;;;;5031702;28;19913;-75
2022/01/04 06:16:51;;;;;;;;;;;10.60;98.60;;;;;;5011095;28;20036;-75
2022/01/04 06:19:17;;;;;;;;;;;10.70;98.50;;;;;;5012215;28;20012;-75
2022/01/04 06:21:42;;;;;;;;;;;10.60;98.50;;;;;;5020147;28;19928;-75
2022/01/04 06:24:08;;;;;;;;;;;10.60;98.50;;;;;;5031293;28;20310;-74
2022/01/04 06:26:33;;;;;;;;;;;10.60;98.60;;;;;;5026011;28;20279;-76
2022/01/04 06:28:59;;;;;;;;;;;10.60;98.50;;;;;;5011562;28;19925;-76
2022/01/04 06:31:26;;;;;;;;;;;10.50;98.40;;;;;;5012336;28;19917;-75
2022/01/04 06:33:51;;;;;;;;;;;10.50;98.50;;;;;;5013010;28;19937;-75
2022/01/04 06:36:17;;;;;;;;;;;10.50;98.50;;;;;;5014968;28;20004;-75
2022/01/04 06:38:42;;;;;;;;;;;10.60;98.40;;;;;;5012415;28;20350;-75
2022/01/04 06:41:08;;;;;;;;;;;10.50;98.40;;;;;;5014468;28;20413;-77
2022/01/04 06:43:33;;;;;;;;;;;10.50;98.40;;;;;;5012161;28;19918;-76
2022/01/04 06:45:59;;;;;;;;;;;10.40;98.50;;;;;;5013743;28;19937;-76
2022/01/04 06:48:24;;;;;;;;;;;10.50;98.50;;;;;;5014482;28;19909;-74
2022/01/04 06:50:51;;;;;;;;;;;10.40;98.60;;;;;;5021467;28;20494;-74
2022/01/04 06:53:17;;;;;;;;;;;10.50;98.50;;;;;;5029851;28;19924;-75
2022/01/04 06:55:42;;;;;;;;;;;10.50;98.50;;;;;;5014944;28;19917;-74
2022/01/04 06:58:08;;;;;;;;;;;10.50;98.50;;;;;;5014114;28;19914;-75
2022/01/04 07:00:33;;;;;;;;;;;10.60;98.70;;;;;;5018537;28;19936;-76
2022/01/04 07:02:59;;;;;;;;;;;10.50;98.50;;;;;;5034143;28;19909;-75
2022/01/04 07:05:25;;;;;;;;;;;10.50;98.60;;;;;;5024836;28;19925;-75
2022/01/04 07:07:51;;;;;;;;;;;10.60;98.70;;;;;;5012883;28;19979;-73
2022/01/04 07:10:17;;;;;;;;;;;10.50;98.50;;;;;;5014729;28;19924;-75
2022/01/04 07:12:42;;;;;;;;;;;10.60;98.50;;;;;;5013180;28;19913;-77
2022/01/04 07:15:08;;;;;;;;;;;10.50;98.30;;;;;;5013711;28;19913;-78
2022/01/04 07:17:37;;;;;;;;;;;10.50;98.40;;;;;;5000343;28;19917;-80
2022/01/04 07:20:04;;;;;;;;;;;10.40;98.60;;;;;;5013991;28;19937;-78
2022/01/04 07:22:29;;;;;;;;;;;10.40;98.60;;;;;;5011976;28;19920;-80
2022/01/04 07:24:55;;;;;;;;;;;10.50;98.60;;;;;;5014432;28;19913;-79
2022/01/04 07:27:20;;;;;;;;;;;10.30;98.70;;;;;;5013097;28;20263;-78
2022/01/04 07:29:46;;;;;;;;;;;10.30;98.80;;;;;;5017207;28;19921;-76
2022/01/04 07:32:11;;;;;;;;;;;10.30;98.70;;;;;;5014353;28;19918;-76
2022/01/04 07:34:37;;;;;;;;;;;10.30;98.70;;;;;;5014125;28;20220;-77
2022/01/04 07:37:02;;;;;;;;;;;10.40;98.70;;;;;;5018933;28;19925;-78
2022/01/04 07:39:28;;;;;;;;;;;10.30;98.70;;;;;;5014413;28;19909;-80
2022/01/04 07:41:55;;;;;;;;;;;10.30;98.70;;;;;;5020867;28;19936;-78
2022/01/04 07:44:20;;;;;;;;;;;10.30;98.60;;;;;;5013134;28;20395;-80
2022/01/04 07:46:46;;;;;;;;;;;10.30;98.60;;;;;;5031199;28;19925;-78
2022/01/04 07:49:11;;;;;;;;;;;10.30;98.70;;;;;;5034249;28;19913;-78
2022/01/04 07:51:37;;;;;;;;;;;10.40;98.60;;;;;;5021770;28;19917;-72
2022/01/04 07:54:02;;;;;;;;;;;10.40;99.00;;;;;;5013788;28;19917;-74
2022/01/04 07:56:28;;;;;;;;;;;10.40;98.60;;;;;;5013485;28;20481;-76
2022/01/04 07:59:00;;;;;;;;;;;10.50;98.50;;;;;;5013901;28;20428;-75
2022/01/04 08:01:25;;;;;;;;;;;10.50;98.40;;;;;;5012821;28;19944;-82
2022/01/04 08:03:51;;;;;;;;;;;10.50;98.50;;;;;;5009319;28;20347;-80
2022/01/04 08:06:16;;;;;;;;;;;10.50;98.50;;;;;;4995403;28;19917;-72
2022/01/04 08:08:42;;;;;;;;;;;10.50;98.50;;;;;;5033601;28;19913;-77
2022/01/04 08:11:08;;;;;;;;;;;10.50;98.40;;;;;;5031702;28;20339;-79
2022/01/04 08:13:33;;;;;;;;;;;10.50;98.40;;;;;;5031753;28;19921;-77
2022/01/04 08:15:59;;;;;;;;;;;10.60;98.40;;;;;;5013595;28;19964;-78
2022/01/04 08:18:24;;;;;;;;;;;10.50;98.30;;;;;;5023712;28;19913;-78
2022/01/04 08:20:55;;;;;;;;;;;10.60;98.40;;;;;;5023017;28;19962;-79
2022/01/04 08:23:21;;;;;;;;;;;10.50;98.30;;;;;;5013199;28;19922;-79
2022/01/04 08:25:46;;;;;;;;;;;10.50;98.40;;;;;;5014097;28;19928;-74
2022/01/04 08:28:12;;;;;;;;;;;10.60;98.30;;;;;;5019241;28;19949;-74
2022/01/04 08:30:37;;;;;;;;;;;10.50;98.40;;;;;;5011789;28;20383;-75
2022/01/04 08:33:03;;;;;;;;;;;10.50;98.40;;;;;;5027841;28;20270;-75
2022/01/04 08:35:28;;;;;;;;;;;10.50;98.40;;;;;;5030500;28;19918;-84
2022/01/04 08:37:54;;;;;;;;;;;10.50;98.20;;;;;;5031593;28;20009;-79
2022/01/04 08:40:19;;;;;;;;;;;10.50;98.30;;;;;;5019151;28;19918;-78
2022/01/04 08:42:45;;;;;;;;;;;10.40;98.60;;;;;;5030574;28;19913;-77
2022/01/04 08:45:10;;;;;;;;;;;10.40;98.40;;;;;;5023352;28;19918;-79
2022/01/04 08:47:36;;;;;;;;;;;10.40;98.50;;;;;;5012790;28;19926;-77
2022/01/04 08:50:03;;;;;;;;;;;10.40;98.60;;;;;;5012000;28;20263;-75
2022/01/04 08:52:29;;;;;;;;;;;10.40;98.50;;;;;;5025525;28;19969;-75
2022/01/04 08:54:54;;;;;;;;;;;10.20;98.70;;;;;;5011982;28;19914;-75
2022/01/04 08:57:20;;;;;;;;;;;10.30;98.70;;;;;;5012730;28;19920;-75
2022/01/04 08:59:47;;;;;;;;;;;10.30;98.70;;;;;;5012862;28;19944;-77
2022/01/04 09:02:12;;;;;;;;;;;10.40;98.60;;;;;;5012555;28;19913;-76
2022/01/04 09:04:38;;;;;;;;;;;10.30;98.60;;;;;;5028314;28;19917;-80
2022/01/04 09:07:03;;;;;;;;;;;10.30;98.50;;;;;;5013849;28;19932;-77
2022/01/04 09:09:29;;;;;;;;;;;10.30;98.60;;;;;;5025552;28;19913;-78
2022/01/04 09:11:55;;;;;;;;;;;10.30;98.60;;;;;;5031371;28;19909;-76
2022/01/04 09:14:26;;;;;;;;;;;10.20;98.60;;;;;;5031275;28;19936;-78
2022/01/04 09:19:37;;;;;;;;;;;10.40;98.60;;;;;;5012382;28;19976;-76
2022/01/04 09:22:03;;;;;;;;;;;10.40;98.60;;;;;;5012122;28;20465;-83
2022/01/04 09:24:29;;;;;;;;;;;10.40;98.50;;;;;;5025097;28;19913;-81
2022/01/04 09:26:54;;;;;;;;;;;10.40;98.50;;;;;;5030455;28;20306;-82
2022/01/04 09:29:20;;;;;;;;;;;10.40;98.40;;;;;;5030948;28;20016;-77
2022/01/04 09:31:47;;;;;;;;;;;10.40;98.40;;;;;;5021821;28;19933;-80
2022/01/04 09:34:13;;;;;;;;;;;10.40;98.40;;;;;;5028632;28;19932;-82
2022/01/04 09:36:39;;;;;;;;;;;10.40;98.40;;;;;;5030817;28;19909;-78
2022/01/04 09:39:09;;;;;;;;;;;10.40;98.40;;;;;;5031057;28;19909;-77
2022/01/04 09:41:35;;;;;;;;;;;10.50;98.40;;;;;;5029029;28;19913;-79
2022/01/04 09:44:02;;;;;;;;;;;10.50;98.30;;;;;;5025312;28;20412;-77
2022/01/04 09:46:28;;;;;;;;;;;10.50;98.20;;;;;;5018907;28;19925;-73
2022/01/04 09:48:54;;;;;;;;;;;10.40;98.10;;;;;;5010633;28;19929;-74
2022/01/04 09:51:20;;;;;;;;;;;10.40;98.20;;;;;;5019910;28;19913;-76
2022/01/04 09:53:45;;;;;;;;;;;10.40;98.20;;;;;;5011641;28;20263;-74
2022/01/04 09:56:12;;;;;;;;;;;10.40;98.20;;;;;;5011520;28;19987;-75
2022/01/04 09:58:38;;;;;;;;;;;10.50;98.30;;;;;;5010251;28;20366;-75
2022/01/04 10:01:03;;;;;;;;;;;10.50;98.20;;;;;;5005945;28;19921;-78
2022/01/04 10:03:30;;;;;;;;;;;10.40;98.10;;;;;;5011570;28;19910;-78
2022/01/04 10:06:01;;;;;;;;;;;10.40;98.30;;;;;;5019891;28;19921;-80
2022/01/04 10:08:26;;;;;;;;;;;10.40;98.40;;;;;;5022122;28;20315;-82
2022/01/04 10:10:59;;;;;;;;;;;10.50;98.40;;;;;;5025984;28;19914;-78
2022/01/04 10:13:28;;;;;;;;;;;10.50;98.20;;;;;;5031438;28;20004;-80
2022/01/04 10:15:53;;;;;;;;;;;10.50;98.20;;;;;;5031254;28;19917;-79
2022/01/04 10:18:21;;;;;;;;;;;10.50;98.20;;;;;;5030784;28;19920;-78
2022/01/04 10:20:48;;;;;;;;;;;10.50;98.20;;;;;;5030170;28;19987;-77
2022/01/04 10:23:16;;;;;;;;;;;10.50;98.20;;;;;;5017545;28;19922;-78
2022/01/04 10:25:41;;;;;;;;;;;10.50;98.20;;;;;;5029157;28;19921;-77
2022/01/04 10:28:07;;;;;;;;;;;10.50;98.10;;;;;;5030869;28;19913;-80
2022/01/04 10:30:39;;;;;;;;;;;10.60;98.10;;;;;;5030418;28;20479;-79
2022/01/04 10:33:06;;;;;;;;;;;10.50;98.00;;;;;;5029903;28;19958;-79
2022/01/04 10:35:34;;;;;;;;;;;10.70;97.90;;;;;;5030703;28;19913;-77
2022/01/04 10:38:02;;;;;;;;;;;10.50;97.80;;;;;;5026450;28;19918;-80
2022/01/04 10:40:28;;;;;;;;;;;10.60;97.80;;;;;;5030291;28;19936;-80
2022/01/04 10:42:53;;;;;;;;;;;10.60;97.90;;;;;;5022956;28;19922;-78
2022/01/04 10:45:30;;;;;;;;;;;10.60;97.90;;;;;;5013066;28;20361;-78
2022/01/04 10:48:07;;;;;;;;;;;10.60;97.90;;;;;;5011082;28;19924;-79
2022/01/04 10:50:34;;;;;;;;;;;10.60;97.80;;;;;;5012009;28;19914;-80
2022/01/04 10:53:00;;;;;;;;;;;10.60;97.80;;;;;;5010681;28;19960;-79
2022/01/04 10:55:30;;;;;;;;;;;10.60;98.00;;;;;;5011451;28;20022;-78
2022/01/04 10:57:55;;;;;;;;;;;10.70;97.90;;;;;;5021204;28;20001;-78
2022/01/04 11:00:22;;;;;;;;;;;10.70;97.80;;;;;;5030456;28;19925;-84
2022/01/04 11:02:48;;;;;;;;;;;10.70;97.80;;;;;;5023358;28;19909;-79
2022/01/04 11:05:14;;;;;;;;;;;10.70;97.70;;;;;;5009987;28;19921;-76
2022/01/04 11:07:58;;;;;;;;;;;10.70;97.70;;;;;;5011130;28;19968;-76
2022/01/04 11:10:24;;;;;;;;;;;10.70;97.70;;;;;;5011110;28;19918;-75
2022/01/04 11:12:50;;;;;;;;;;;10.80;97.70;;;;;;5028271;28;20063;-78
2022/01/04 11:15:16;;;;;;;;;;;10.80;97.60;;;;;;5012354;28;19931;-79
2022/01/04 11:17:42;;;;;;;;;;;10.70;97.60;;;;;;5010066;28;19928;-78
2022/01/04 11:20:08;;;;;;;;;;;10.80;97.70;;;;;;5019515;28;19913;-78
2022/01/04 11:22:34;;;;;;;;;;;10.70;97.60;;;;;;5030753;28;20493;-74
2022/01/04 11:25:02;;;;;;;;;;;10.70;97.60;;;;;;5024522;28;19925;-74
2022/01/04 11:27:28;;;;;;;;;;;10.70;97.70;;;;;;5013918;28;19920;-74
2022/01/04 11:29:58;;;;;;;;;;;10.70;97.70;;;;;;5015072;28;20271;-80
2022/01/04 11:32:24;;;;;;;;;;;10.70;97.70;;;;;;5014054;28;19956;-72
2022/01/04 11:34:50;;;;;;;;;;;10.70;97.80;;;;;;5020258;28;19924;-72
2022/01/04 11:37:20;;;;;;;;;;;10.70;97.70;;;;;;5023719;28;19996;-74
2022/01/04 11:39:46;;;;;;;;;;;10.60;97.80;;;;;;5016564;28;19929;-73
2022/01/04 11:42:34;;;;;;;;;;;10.70;97.80;;;;;;5012628;28;21384;-73
2022/01/04 11:45:00;;;;;;;;;;;10.70;97.80;;;;;;5015105;28;19921;-74
2022/01/04 11:47:30;;;;;;;;;;;10.70;98.00;;;;;;5013698;28;19925;-73
2022/01/04 11:50:07;;;;;;;;;;;10.70;97.90;;;;;;5012736;28;20001;-72
2022/01/04 11:52:52;;;;;;;;;;;10.70;97.90;;;;;;5033294;28;19917;-71
2022/01/04 11:55:24;;;;;;;;;;;10.70;97.80;;;;;;5032370;28;19936;-74
2022/01/04 11:57:56;;;;;;;;;;;10.80;98.00;;;;;;5032865;28;19924;-74
2022/01/04 12:00:43;;;;;;;;;;;10.80;97.80;;;;;;5013714;28;20182;-76
2022/01/04 12:03:11;;;;;;;;;;;10.80;97.70;;;;;;5030234;28;19909;-77
2022/01/04 12:05:39;;;;;;;;;;;10.90;97.60;;;;;;5033644;28;19925;-76
2022/01/04 12:08:15;;;;;;;;;;;10.80;97.60;;;;;;5032471;28;19917;-75
2022/01/04 12:10:41;;;;;;;;;;;10.80;97.60;;;;;;5012602;28;19983;-74
2022/01/04 12:13:06;;;;;;;;;;;10.80;97.60;;;;;;5012470;28;19918;-77
2022/01/04 12:15:32;;;;;;;;;;;10.80;97.50;;;;;;5013875;28;19920;-77
2022/01/04 12:17:57;;;;;;;;;;;10.80;97.60;;;;;;5013666;28;19937;-77
2022/01/04 12:20:41;;;;;;;;;;;10.80;97.50;;;;;;5013508;28;20375;-79
2022/01/04 12:23:35;;;;;;;;;;;10.80;97.50;;;;;;5013816;28;20004;-77
2022/01/04 12:28:29;;;;;;;;;;;10.80;97.60;;;;;;5013210;28;19921;-73
2022/01/04 12:31:07;;;;;;;;;;;10.80;97.60;;;;;;5012252;28;19925;-76
2022/01/04 12:33:36;;;;;;;;;;;10.80;97.60;;;;;;5012405;28;20407;-76
2022/01/04 12:36:01;;;;;;;;;;;10.80;97.60;;;;;;5028739;28;19924;-79
2022/01/04 12:38:27;;;;;;;;;;;10.70;97.90;;;;;;5021249;28;19929;-75
2022/01/04 12:40:53;;;;;;;;;;;10.70;97.80;;;;;;5013465;28;19960;-76
2022/01/04 12:43:18;;;;;;;;;;;10.70;97.70;;;;;;5013013;28;20008;-78
2022/01/04 12:45:54;;;;;;;;;;;10.70;97.70;;;;;;5012600;28;19918;-76
2022/01/04 12:48:40;;;;;;;;;;;10.70;97.70;;;;;;5013289;28;19920;-76
2022/01/04 12:51:25;;;;;;;;;;;10.70;97.60;;;;;;5011687;28;19913;-76
2022/01/04 12:53:55;;;;;;;;;;;10.70;97.70;;;;;;5013360;28;20000;-74
2022/01/04 12:56:20;;;;;;;;;;;10.80;97.70;;;;;;5011918;28;20313;-76
2022/01/04 12:58:46;;;;;;;;;;;10.70;97.70;;;;;;5032966;28;20000;-73
2022/01/04 13:01:12;;;;;;;;;;;10.70;97.60;;;;;;5031848;28;20335;-76
2022/01/04 13:03:38;;;;;;;;;;;10.70;97.60;;;;;;5031446;28;19920;-75
2022/01/04 13:06:04;;;;;;;;;;;10.70;97.70;;;;;;5016257;28;19918;-77
2022/01/04 13:08:31;;;;;;;;;;;10.70;97.70;;;;;;5011521;28;19925;-75
2022/01/04 13:11:06;;;;;;;;;;;10.70;97.80;;;;;;5012638;28;19917;-73
2022/01/04 13:13:32;;;;;;;;;;;10.70;97.70;;;;;;5012682;28;19913;-74
2022/01/04 13:16:16;;;;;;;;;;;10.70;97.60;;;;;;5015006;28;19948;-76
2022/01/04 13:18:41;;;;;;;;;;;10.70;97.60;;;;;;5011112;28;19968;-76
2022/01/04 13:21:07;;;;;;;;;;;10.70;97.70;;;;;;5012775;28;19949;-78
2022/01/04 13:23:37;;;;;;;;;;;10.60;97.70;;;;;;5019139;28;19943;-75
2022/01/04 13:26:02;;;;;;;;;;;10.60;97.80;;;;;;5024035;28;19972;-75
2022/01/04 13:28:28;;;;;;;;;;;10.70;97.80;;;;;;5012729;28;19937;-76
2022/01/04 13:30:53;;;;;;;;;;;10.60;97.70;;;;;;5025210;28;19921;-79
2022/01/04 13:33:22;;;;;;;;;;;10.60;97.70;;;;;;5030935;28;19928;-75
2022/01/04 13:35:48;;;;;;;;;;;10.60;97.70;;;;;;5031739;28;20418;-74
2022/01/04 13:38:19;;;;;;;;;;;10.50;97.90;;;;;;5031710;28;20240;-76
2022/01/04 13:40:45;;;;;;;;;;;10.60;98.10;;;;;;5029858;28;19921;-76
2022/01/04 13:43:12;;;;;;;;;;;10.70;98.10;;;;;;5021934;28;19937;-77
2022/01/04 13:45:40;;;;;;;;;;;10.70;98.10;;;;;;5011486;28;19917;-77
2022/01/04 13:48:06;;;;;;;;;;;10.70;98.10;;;;;;4996838;28;20012;-77
2022/01/04 13:50:57;;;;;;;;;;;10.70;98.00;;;;;;4996509;28;20399;-77
2022/01/04 13:53:23;;;;;;;;;;;10.60;98.10;;;;;;5010552;28;20335;-78
2022/01/04 13:55:49;;;;;;;;;;;10.70;98.10;;;;;;5008606;28;19968;-79
2022/01/04 13:58:33;;;;;;;;;;;10.60;97.90;;;;;;4999807;28;19913;-75
2022/01/04 14:01:08;;;;;;;;;;;10.60;97.80;;;;;;5029109;28;20176;-77
2022/01/04 14:03:34;;;;;;;;;;;10.60;97.90;;;;;;5011873;28;19917;-74
2022/01/04 14:05:59;;;;;;;;;;;10.60;97.90;;;;;;5012057;28;20316;-76
2022/01/04 14:08:44;;;;;;;;;;;10.60;97.80;;;;;;5010998;28;19924;-76
2022/01/04 14:11:09;;;;;;;;;;;10.70;97.90;;;;;;5023101;28;19917;-75
2022/01/04 14:13:36;;;;;;;;;;;10.70;97.80;;;;;;5014492;28;20435;-79
2022/01/04 14:16:12;;;;;;;;;;;10.50;97.80;;;;;;5007807;28;19917;-75
2022/01/04 14:18:57;;;;;;;;;;;10.60;97.80;;;;;;5012346;28;20361;-77
2022/01/04 14:21:33;;;;;;;;;;;10.60;97.70;;;;;;5012302;28;20240;-79
2022/01/04 14:23:59;;;;;;;;;;;10.70;97.70;;;;;;5012629;28;19910;-77
2022/01/04 14:26:25;;;;;;;;;;;10.60;97.40;;;;;;5011622;28;19918;-77
2022/01/04 14:28:50;;;;;;;;;;;10.50;96.10;;;;;;5012122;28;19917;-77
2022/01/04 14:31:16;;;;;;;;;;;10.30;96.00;;;;;;5031223;28;19960;-77